North Salem, New York
Current Conditions -  °F | °C
As of 1:53 PM on Tuesday 27 Jan 2015 (Local Time) from KDXR Reporting Station
Scattered Clouds Scattered Clouds  
Wind Chill:   Ceiling: Unl
Heat Index: 20°   Visibility: 10mi
Dew Point:   Wind: 14mph
Humidity: 60%   Direction: 340°NNW
Pressure: 29.65"   Gusts: 23mph
Location:  41.33°N, 73.57°W
Report Text: KDXR 271853Z 34012G20KT 10SM SCT048 M07/M13 A2965 RMK AO2 PK WND 33029/1831 UPB1756E51SNE1756B07E21 SLP047 P0000 T10671133 $
Loading
Personal Weather Stations






























Interactive Weather Map New forecast layout! Learn more

10-Day Weather Forecast

Advertisements
Track Severe Weather on mobile